sensor_id;sensor_type;location;lat;lon;timestamp;temperature;humidity
429;DHT22;201;48.758;9.290;2022-09-23T10:07:34;33.50;1.00
429;DHT22;201;48.758;9.290;2022-09-23T10:10:29;34.60;1.00
429;DHT22;201;48.758;9.290;2022-09-23T10:12:55;35.00;1.00
429;DHT22;201;48.758;9.290;2022-09-23T10:15:30;35.30;1.00
429;DHT22;201;48.758;9.290;2022-09-23T10:17:57;35.40;1.00
429;DHT22;201;48.758;9.290;2022-09-23T10:20:31;35.00;1.00
429;DHT22;201;48.758;9.290;2022-09-23T10:23:05;34.60;1.00
429;DHT22;201;48.758;9.290;2022-09-23T10:25:33;34.30;1.00
429;DHT22;201;48.758;9.290;2022-09-23T10:33:30;31.60;1.00
429;DHT22;201;48.758;9.290;2022-09-23T10:35:56;30.60;1.00
429;DHT22;201;48.758;9.290;2022-09-23T10:38:22;29.50;1.00
429;DHT22;201;48.758;9.290;2022-09-23T10:40:48;28.30;1.00
429;DHT22;201;48.758;9.290;2022-09-23T10:43:59;27.60;1.00
429;DHT22;201;48.758;9.290;2022-09-23T10:49:52;26.30;1.00
429;DHT22;201;48.758;9.290;2022-09-23T11:01:37;24.20;1.00
429;DHT22;201;48.758;9.290;2022-09-23T11:12:31;23.10;1.00
429;DHT22;201;48.758;9.290;2022-09-23T11:18:14;23.70;1.00
429;DHT22;201;48.758;9.290;2022-09-23T11:36:48;22.90;1.00
429;DHT22;201;48.758;9.290;2022-09-23T11:39:33;22.90;1.00
429;DHT22;201;48.758;9.290;2022-09-23T11:42:00;22.90;1.00
429;DHT22;201;48.758;9.290;2022-09-23T11:44:32;22.90;1.00
429;DHT22;201;48.758;9.290;2022-09-23T11:47:31;22.90;1.00
429;DHT22;201;48.758;9.290;2022-09-23T11:50:05;22.80;1.00
429;DHT22;201;48.758;9.290;2022-09-23T11:52:47;22.80;1.00
429;DHT22;201;48.758;9.290;2022-09-23T11:55:27;22.90;1.00
429;DHT22;201;48.758;9.290;2022-09-23T11:58:04;23.10;1.00
429;DHT22;201;48.758;9.290;2022-09-23T12:00:38;23.30;1.00
429;DHT22;201;48.758;9.290;2022-09-23T12:03:37;23.50;1.00
429;DHT22;201;48.758;9.290;2022-09-23T12:06:02;23.70;1.00
429;DHT22;201;48.758;9.290;2022-09-23T12:08:32;23.90;1.00
429;DHT22;201;48.758;9.290;2022-09-23T12:14:20;23.60;1.00
429;DHT22;201;48.758;9.290;2022-09-23T12:20:08;22.80;1.00
429;DHT22;201;48.758;9.290;2022-09-23T12:27:47;22.60;1.00
429;DHT22;201;48.758;9.290;2022-09-23T12:30:17;22.60;1.00
429;DHT22;201;48.758;9.290;2022-09-23T12:32:43;22.20;1.00
429;DHT22;201;48.758;9.290;2022-09-23T12:35:30;22.20;1.00
429;DHT22;201;48.758;9.290;2022-09-23T12:37:59;22.20;1.00
429;DHT22;201;48.758;9.290;2022-09-23T12:40:32;22.20;1.00
429;DHT22;201;48.758;9.290;2022-09-23T12:42:59;22.10;1.00
429;DHT22;201;48.758;9.290;2022-09-23T12:56:01;20.50;1.00
429;DHT22;201;48.758;9.290;2022-09-23T12:58:56;20.60;1.00
429;DHT22;201;48.758;9.290;2022-09-23T13:01:23;20.70;1.00
429;DHT22;201;48.758;9.290;2022-09-23T13:06:57;21.10;1.00
429;DHT22;201;48.758;9.290;2022-09-23T13:09:31;21.20;1.00
429;DHT22;201;48.758;9.290;2022-09-23T13:12:02;21.20;1.00
429;DHT22;201;48.758;9.290;2022-09-23T13:14:31;21.30;1.00
429;DHT22;201;48.758;9.290;2022-09-23T13:16:58;21.30;1.00
429;DHT22;201;48.758;9.290;2022-09-23T13:26:55;20.90;1.00
429;DHT22;201;48.758;9.290;2022-09-23T13:29:54;20.80;1.00
429;DHT22;201;48.758;9.290;2022-09-23T13:32:26;21.00;1.00
429;DHT22;201;48.758;9.290;2022-09-23T13:35:00;20.90;1.00
429;DHT22;201;48.758;9.290;2022-09-23T13:40:09;20.30;1.00
429;DHT22;201;48.758;9.290;2022-09-23T13:42:40;20.20;1.00
429;DHT22;201;48.758;9.290;2022-09-23T13:45:17;20.00;1.00
429;DHT22;201;48.758;9.290;2022-09-23T13:47:44;19.80;1.00
429;DHT22;201;48.758;9.290;2022-09-23T13:50:23;19.40;1.00
429;DHT22;201;48.758;9.290;2022-09-23T13:52:54;19.40;1.00
429;DHT22;201;48.758;9.290;2022-09-23T13:55:32;19.20;1.00
429;DHT22;201;48.758;9.290;2022-09-23T13:58:03;19.20;1.00
429;DHT22;201;48.758;9.290;2022-09-23T14:00:33;19.10;1.00
429;DHT22;201;48.758;9.290;2022-09-23T14:03:00;19.20;1.00
429;DHT22;201;48.758;9.290;2022-09-23T14:05:31;19.30;1.00
429;DHT22;201;48.758;9.290;2022-09-23T14:07:57;19.30;1.00
429;DHT22;201;48.758;9.290;2022-09-23T14:10:24;19.40;1.00
429;DHT22;201;48.758;9.290;2022-09-23T14:12:53;19.30;1.00
429;DHT22;201;48.758;9.290;2022-09-23T14:15:20;19.30;1.00
429;DHT22;201;48.758;9.290;2022-09-23T14:17:52;19.60;1.00
429;DHT22;201;48.758;9.290;2022-09-23T14:20:20;19.60;1.00
429;DHT22;201;48.758;9.290;2022-09-23T14:22:46;19.70;1.00
429;DHT22;201;48.758;9.290;2022-09-23T14:25:14;19.80;1.00
429;DHT22;201;48.758;9.290;2022-09-23T14:27:43;19.80;1.00
429;DHT22;201;48.758;9.290;2022-09-23T14:30:16;20.00;1.00
429;DHT22;201;48.758;9.290;2022-09-23T14:32:45;19.80;1.00
429;DHT22;201;48.758;9.290;2022-09-23T14:35:23;19.70;1.00
429;DHT22;201;48.758;9.290;2022-09-23T14:37:53;19.60;1.00
429;DHT22;201;48.758;9.290;2022-09-23T14:40:50;19.40;1.00
429;DHT22;201;48.758;9.290;2022-09-23T14:43:26;19.20;1.00
429;DHT22;201;48.758;9.290;2022-09-23T14:45:55;19.10;1.00
429;DHT22;201;48.758;9.290;2022-09-23T14:48:39;18.90;1.00
429;DHT22;201;48.758;9.290;2022-09-23T14:51:07;18.70;1.00
429;DHT22;201;48.758;9.290;2022-09-23T14:53:38;18.50;1.00
429;DHT22;201;48.758;9.290;2022-09-23T15:03:55;18.40;1.00
429;DHT22;201;48.758;9.290;2022-09-23T15:06:22;18.50;1.00
429;DHT22;201;48.758;9.290;2022-09-23T15:08:50;18.50;1.00
429;DHT22;201;48.758;9.290;2022-09-23T15:11:16;18.50;1.00
429;DHT22;201;48.758;9.290;2022-09-23T15:13:46;18.60;1.00
429;DHT22;201;48.758;9.290;2022-09-23T15:16:14;18.70;1.00
429;DHT22;201;48.758;9.290;2022-09-23T15:18:43;18.70;1.00
429;DHT22;201;48.758;9.290;2022-09-23T15:21:13;18.60;1.00
429;DHT22;201;48.758;9.290;2022-09-23T15:26:10;18.20;1.00
429;DHT22;201;48.758;9.290;2022-09-23T15:28:36;18.20;1.00
429;DHT22;201;48.758;9.290;2022-09-23T15:31:01;18.10;1.00
429;DHT22;201;48.758;9.290;2022-09-23T15:33:30;18.00;1.00
429;DHT22;201;48.758;9.290;2022-09-23T15:35:57;17.90;1.00
429;DHT22;201;48.758;9.290;2022-09-23T15:38:23;17.80;1.00
429;DHT22;201;48.758;9.290;2022-09-23T15:40:51;17.70;1.00
429;DHT22;201;48.758;9.290;2022-09-23T15:43:22;17.70;1.00
429;DHT22;201;48.758;9.290;2022-09-23T15:45:51;17.60;1.00
429;DHT22;201;48.758;9.290;2022-09-23T15:48:26;17.60;1.00
429;DHT22;201;48.758;9.290;2022-09-23T15:50:52;17.50;1.00
429;DHT22;201;48.758;9.290;2022-09-23T15:53:23;17.40;1.00
429;DHT22;201;48.758;9.290;2022-09-23T15:55:49;17.40;1.00
429;DHT22;201;48.758;9.290;2022-09-23T15:58:16;17.40;1.00
429;DHT22;201;48.758;9.290;2022-09-23T16:00:42;17.40;1.00
429;DHT22;201;48.758;9.290;2022-09-23T16:03:11;17.30;1.00
429;DHT22;201;48.758;9.290;2022-09-23T16:05:38;17.20;1.00
429;DHT22;201;48.758;9.290;2022-09-23T16:08:06;17.10;1.00
429;DHT22;201;48.758;9.290;2022-09-23T16:10:33;17.00;1.00
429;DHT22;201;48.758;9.290;2022-09-23T16:13:00;17.00;1.00
429;DHT22;201;48.758;9.290;2022-09-23T16:15:31;17.00;1.00
429;DHT22;201;48.758;9.290;2022-09-23T16:17:57;16.90;1.00
429;DHT22;201;48.758;9.290;2022-09-23T16:20:24;16.70;1.00
429;DHT22;201;48.758;9.290;2022-09-23T16:23:01;16.70;1.00
429;DHT22;201;48.758;9.290;2022-09-23T16:25:29;16.60;1.00
429;DHT22;201;48.758;9.290;2022-09-23T16:27:56;16.60;1.00
429;DHT22;201;48.758;9.290;2022-09-23T16:30:24;16.50;1.00
429;DHT22;201;48.758;9.290;2022-09-23T16:32:50;16.50;1.00
429;DHT22;201;48.758;9.290;2022-09-23T16:35:20;16.40;1.00
429;DHT22;201;48.758;9.290;2022-09-23T16:37:49;16.30;1.00
429;DHT22;201;48.758;9.290;2022-09-23T16:40:17;16.30;1.00
429;DHT22;201;48.758;9.290;2022-09-23T16:42:46;16.30;1.00
429;DHT22;201;48.758;9.290;2022-09-23T16:45:13;16.40;1.00
429;DHT22;201;48.758;9.290;2022-09-23T16:47:45;16.30;1.00
429;DHT22;201;48.758;9.290;2022-09-23T16:50:13;16.10;1.00
429;DHT22;201;48.758;9.290;2022-09-23T16:52:39;16.00;1.00
429;DHT22;201;48.758;9.290;2022-09-23T16:55:06;15.90;1.00
429;DHT22;201;48.758;9.290;2022-09-23T16:57:34;15.70;1.00
429;DHT22;201;48.758;9.290;2022-09-23T16:59:59;15.60;1.00
429;DHT22;201;48.758;9.290;2022-09-23T17:02:44;15.50;1.00
429;DHT22;201;48.758;9.290;2022-09-23T17:05:28;15.40;1.00
429;DHT22;201;48.758;9.290;2022-09-23T17:07:53;15.30;1.00
429;DHT22;201;48.758;9.290;2022-09-23T17:10:19;15.20;1.00
429;DHT22;201;48.758;9.290;2022-09-23T17:12:45;15.20;1.00
429;DHT22;201;48.758;9.290;2022-09-23T17:15:11;15.10;1.00
429;DHT22;201;48.758;9.290;2022-09-23T17:17:37;15.10;1.00
429;DHT22;201;48.758;9.290;2022-09-23T17:20:04;15.00;1.00
429;DHT22;201;48.758;9.290;2022-09-23T17:22:33;15.10;1.00
429;DHT22;201;48.758;9.290;2022-09-23T17:25:00;15.00;1.00
429;DHT22;201;48.758;9.290;2022-09-23T17:27:28;15.00;1.00
429;DHT22;201;48.758;9.290;2022-09-23T17:29:53;14.90;1.00
429;DHT22;201;48.758;9.290;2022-09-23T17:32:19;14.80;1.00
429;DHT22;201;48.758;9.290;2022-09-23T17:34:45;14.80;1.00
429;DHT22;201;48.758;9.290;2022-09-23T17:37:10;14.80;1.00
429;DHT22;201;48.758;9.290;2022-09-23T17:39:36;14.70;1.00
429;DHT22;201;48.758;9.290;2022-09-23T17:42:02;14.80;1.00
429;DHT22;201;48.758;9.290;2022-09-23T17:44:28;14.70;1.00
429;DHT22;201;48.758;9.290;2022-09-23T17:46:54;14.60;1.00
429;DHT22;201;48.758;9.290;2022-09-23T17:49:19;14.60;1.00
429;DHT22;201;48.758;9.290;2022-09-23T17:51:46;14.50;1.00
429;DHT22;201;48.758;9.290;2022-09-23T17:54:11;14.60;1.00
429;DHT22;201;48.758;9.290;2022-09-23T17:56:39;14.50;1.00
429;DHT22;201;48.758;9.290;2022-09-23T17:59:05;14.50;1.00
429;DHT22;201;48.758;9.290;2022-09-23T18:01:31;14.50;1.00
429;DHT22;201;48.758;9.290;2022-09-23T18:03:58;14.50;1.00
429;DHT22;201;48.758;9.290;2022-09-23T18:06:27;14.50;1.00
429;DHT22;201;48.758;9.290;2022-09-23T18:08:53;14.40;1.00
429;DHT22;201;48.758;9.290;2022-09-23T18:11:25;14.40;1.00
429;DHT22;201;48.758;9.290;2022-09-23T18:13:59;14.30;1.00
429;DHT22;201;48.758;9.290;2022-09-23T18:16:33;14.20;1.00
429;DHT22;201;48.758;9.290;2022-09-23T18:19:00;14.10;1.00
429;DHT22;201;48.758;9.290;2022-09-23T18:21:29;14.00;1.00
429;DHT22;201;48.758;9.290;2022-09-23T18:23:55;13.90;1.00
429;DHT22;201;48.758;9.290;2022-09-23T18:26:22;13.80;1.00
429;DHT22;201;48.758;9.290;2022-09-23T18:28:49;13.80;1.00
429;DHT22;201;48.758;9.290;2022-09-23T18:31:17;13.70;1.00
429;DHT22;201;48.758;9.290;2022-09-23T18:33:47;13.60;1.00
429;DHT22;201;48.758;9.290;2022-09-23T18:36:12;13.60;1.00
429;DHT22;201;48.758;9.290;2022-09-23T18:38:38;13.50;1.00
429;DHT22;201;48.758;9.290;2022-09-23T18:41:04;13.60;1.00
429;DHT22;201;48.758;9.290;2022-09-23T18:43:31;13.60;1.00
429;DHT22;201;48.758;9.290;2022-09-23T18:46:02;13.50;1.00
429;DHT22;201;48.758;9.290;2022-09-23T18:48:29;13.50;1.00
429;DHT22;201;48.758;9.290;2022-09-23T18:51:15;13.50;1.00
429;DHT22;201;48.758;9.290;2022-09-23T18:53:41;13.50;1.00
429;DHT22;201;48.758;9.290;2022-09-23T18:56:13;13.50;1.00
429;DHT22;201;48.758;9.290;2022-09-23T18:58:44;13.50;1.00
429;DHT22;201;48.758;9.290;2022-09-23T19:01:09;13.50;1.00
429;DHT22;201;48.758;9.290;2022-09-23T19:03:35;13.50;1.00
429;DHT22;201;48.758;9.290;2022-09-23T19:06:03;13.50;1.00
429;DHT22;201;48.758;9.290;2022-09-23T19:08:28;13.60;1.00
429;DHT22;201;48.758;9.290;2022-09-23T19:10:55;13.60;1.00
429;DHT22;201;48.758;9.290;2022-09-23T19:13:21;13.70;1.00
429;DHT22;201;48.758;9.290;2022-09-23T19:15:47;13.70;1.00
429;DHT22;201;48.758;9.290;2022-09-23T19:18:12;13.80;1.00
429;DHT22;201;48.758;9.290;2022-09-23T19:20:50;13.80;1.00
429;DHT22;201;48.758;9.290;2022-09-23T19:23:19;13.80;1.00
429;DHT22;201;48.758;9.290;2022-09-23T19:25:46;13.80;1.00
429;DHT22;201;48.758;9.290;2022-09-23T19:28:12;13.80;1.00
429;DHT22;201;48.758;9.290;2022-09-23T19:30:38;13.90;1.00
429;DHT22;201;48.758;9.290;2022-09-23T19:33:05;13.90;1.00
429;DHT22;201;48.758;9.290;2022-09-23T19:35:44;13.90;1.00
429;DHT22;201;48.758;9.290;2022-09-23T19:38:11;13.90;1.00
429;DHT22;201;48.758;9.290;2022-09-23T19:40:36;13.90;1.00
429;DHT22;201;48.758;9.290;2022-09-23T19:43:02;13.90;1.00
429;DHT22;201;48.758;9.290;2022-09-23T19:45:29;14.00;1.00
429;DHT22;201;48.758;9.290;2022-09-23T19:47:58;13.80;1.00
429;DHT22;201;48.758;9.290;2022-09-23T19:50:25;13.70;1.00
429;DHT22;201;48.758;9.290;2022-09-23T19:52:50;13.70;1.00
429;DHT22;201;48.758;9.290;2022-09-23T19:55:19;13.70;1.00
429;DHT22;201;48.758;9.290;2022-09-23T19:57:45;13.70;1.00
429;DHT22;201;48.758;9.290;2022-09-23T20:00:12;13.70;1.00
429;DHT22;201;48.758;9.290;2022-09-23T20:02:40;13.60;1.00
429;DHT22;201;48.758;9.290;2022-09-23T20:05:05;13.60;1.00
429;DHT22;201;48.758;9.290;2022-09-23T20:07:31;13.50;1.00
429;DHT22;201;48.758;9.290;2022-09-23T20:09:57;13.40;1.00
429;DHT22;201;48.758;9.290;2022-09-23T20:12:23;13.30;1.00
429;DHT22;201;48.758;9.290;2022-09-23T20:14:48;13.40;1.00
429;DHT22;201;48.758;9.290;2022-09-23T20:17:16;13.40;1.00
429;DHT22;201;48.758;9.290;2022-09-23T20:19:43;13.40;1.00
429;DHT22;201;48.758;9.290;2022-09-23T20:22:09;13.50;1.00
429;DHT22;201;48.758;9.290;2022-09-23T20:24:56;13.50;1.00
429;DHT22;201;48.758;9.290;2022-09-23T20:27:25;13.60;1.00
429;DHT22;201;48.758;9.290;2022-09-23T20:29:50;13.60;1.00
429;DHT22;201;48.758;9.290;2022-09-23T20:32:19;13.60;1.00
429;DHT22;201;48.758;9.290;2022-09-23T20:34:45;13.50;1.00
429;DHT22;201;48.758;9.290;2022-09-23T20:37:17;13.50;1.00
429;DHT22;201;48.758;9.290;2022-09-23T20:39:50;13.40;1.00
429;DHT22;201;48.758;9.290;2022-09-23T20:42:17;13.30;1.00
429;DHT22;201;48.758;9.290;2022-09-23T20:44:44;13.30;1.00
429;DHT22;201;48.758;9.290;2022-09-23T20:47:14;13.30;1.00
429;DHT22;201;48.758;9.290;2022-09-23T20:49:41;13.20;1.00
429;DHT22;201;48.758;9.290;2022-09-23T20:52:12;13.10;1.00
429;DHT22;201;48.758;9.290;2022-09-23T20:54:37;13.10;1.00
429;DHT22;201;48.758;9.290;2022-09-23T20:57:10;13.00;1.20
429;DHT22;201;48.758;9.290;2022-09-23T20:59:36;13.00;1.30
429;DHT22;201;48.758;9.290;2022-09-23T21:02:02;13.00;1.60
429;DHT22;201;48.758;9.290;2022-09-23T21:04:29;12.90;1.80
429;DHT22;201;48.758;9.290;2022-09-23T21:06:55;12.90;2.10
429;DHT22;201;48.758;9.290;2022-09-23T21:09:26;12.80;2.30
429;DHT22;201;48.758;9.290;2022-09-23T21:11:56;12.70;2.70
429;DHT22;201;48.758;9.290;2022-09-23T21:14:22;12.80;2.80
429;DHT22;201;48.758;9.290;2022-09-23T21:16:48;12.70;2.70
429;DHT22;201;48.758;9.290;2022-09-23T21:19:15;12.70;2.70
429;DHT22;201;48.758;9.290;2022-09-23T21:21:40;12.70;2.70
429;DHT22;201;48.758;9.290;2022-09-23T21:24:06;12.60;2.60
429;DHT22;201;48.758;9.290;2022-09-23T21:26:31;12.60;2.60
429;DHT22;201;48.758;9.290;2022-09-23T21:28:59;12.60;2.60
429;DHT22;201;48.758;9.290;2022-09-23T21:31:33;12.50;2.90
429;DHT22;201;48.758;9.290;2022-09-23T21:34:02;12.50;3.30
429;DHT22;201;48.758;9.290;2022-09-23T21:36:29;12.40;3.40
429;DHT22;201;48.758;9.290;2022-09-23T21:38:55;12.40;3.70
429;DHT22;201;48.758;9.290;2022-09-23T21:41:22;12.30;3.80
429;DHT22;201;48.758;9.290;2022-09-23T21:43:48;12.30;4.00
429;DHT22;201;48.758;9.290;2022-09-23T21:46:16;12.30;4.30
429;DHT22;201;48.758;9.290;2022-09-23T21:48:44;12.30;4.60
429;DHT22;201;48.758;9.290;2022-09-23T21:51:13;12.30;4.70
429;DHT22;201;48.758;9.290;2022-09-23T21:53:41;12.30;4.80
429;DHT22;201;48.758;9.290;2022-09-23T21:56:07;12.30;4.90
429;DHT22;201;48.758;9.290;2022-09-23T21:58:34;12.30;4.80
429;DHT22;201;48.758;9.290;2022-09-23T22:01:05;12.30;4.80
429;DHT22;201;48.758;9.290;2022-09-23T22:03:31;12.30;4.70
429;DHT22;201;48.758;9.290;2022-09-23T22:06:10;12.20;4.60
429;DHT22;201;48.758;9.290;2022-09-23T22:08:41;12.20;4.70
429;DHT22;201;48.758;9.290;2022-09-23T22:11:11;12.20;4.70
429;DHT22;201;48.758;9.290;2022-09-23T22:13:56;12.10;4.70
429;DHT22;201;48.758;9.290;2022-09-23T22:16:22;12.10;5.00
429;DHT22;201;48.758;9.290;2022-09-23T22:18:52;12.10;5.00
429;DHT22;201;48.758;9.290;2022-09-23T22:21:20;12.10;5.60
429;DHT22;201;48.758;9.290;2022-09-23T22:23:45;12.00;5.20
429;DHT22;201;48.758;9.290;2022-09-23T22:26:11;12.00;5.20
429;DHT22;201;48.758;9.290;2022-09-23T22:28:37;12.00;5.40
429;DHT22;201;48.758;9.290;2022-09-23T22:31:21;12.00;5.80
429;DHT22;201;48.758;9.290;2022-09-23T22:34:05;12.00;5.80
429;DHT22;201;48.758;9.290;2022-09-23T22:36:30;12.00;5.30
429;DHT22;201;48.758;9.290;2022-09-23T22:38:56;12.10;5.30
429;DHT22;201;48.758;9.290;2022-09-23T22:41:22;12.10;5.10
429;DHT22;201;48.758;9.290;2022-09-23T22:43:49;12.10;5.10
429;DHT22;201;48.758;9.290;2022-09-23T22:46:15;12.10;5.00
429;DHT22;201;48.758;9.290;2022-09-23T22:48:42;12.10;4.70
429;DHT22;201;48.758;9.290;2022-09-23T22:51:08;12.10;4.70
429;DHT22;201;48.758;9.290;2022-09-23T22:53:34;12.10;4.80
429;DHT22;201;48.758;9.290;2022-09-23T22:55:59;12.10;4.70
429;DHT22;201;48.758;9.290;2022-09-23T22:58:26;12.00;4.60
429;DHT22;201;48.758;9.290;2022-09-23T23:00:55;12.10;5.00
429;DHT22;201;48.758;9.290;2022-09-23T23:03:22;12.10;5.10
429;DHT22;201;48.758;9.290;2022-09-23T23:05:48;12.10;5.10
429;DHT22;201;48.758;9.290;2022-09-23T23:08:15;12.10;5.00
429;DHT22;201;48.758;9.290;2022-09-23T23:10:41;12.20;5.00
429;DHT22;201;48.758;9.290;2022-09-23T23:13:08;12.20;4.90
429;DHT22;201;48.758;9.290;2022-09-23T23:15:37;12.20;4.70
429;DHT22;201;48.758;9.290;2022-09-23T23:18:03;12.30;4.50
429;DHT22;201;48.758;9.290;2022-09-23T23:20:28;12.30;4.40
429;DHT22;201;48.758;9.290;2022-09-23T23:22:54;12.40;4.50
429;DHT22;201;48.758;9.290;2022-09-23T23:25:20;12.40;4.40
429;DHT22;201;48.758;9.290;2022-09-23T23:27:45;12.30;4.40
429;DHT22;201;48.758;9.290;2022-09-23T23:30:11;12.40;4.50
429;DHT22;201;48.758;9.290;2022-09-23T23:32:37;12.30;4.50
429;DHT22;201;48.758;9.290;2022-09-23T23:35:03;12.30;4.40
429;DHT22;201;48.758;9.290;2022-09-23T23:37:28;12.30;4.30
429;DHT22;201;48.758;9.290;2022-09-23T23:39:54;12.30;4.40
429;DHT22;201;48.758;9.290;2022-09-23T23:42:19;12.30;4.60
429;DHT22;201;48.758;9.290;2022-09-23T23:44:45;12.30;4.80
429;DHT22;201;48.758;9.290;2022-09-23T23:47:10;12.30;4.80
429;DHT22;201;48.758;9.290;2022-09-23T23:49:36;12.30;4.90
429;DHT22;201;48.758;9.290;2022-09-23T23:52:02;12.30;5.10
429;DHT22;201;48.758;9.290;2022-09-23T23:54:27;12.20;5.20
429;DHT22;201;48.758;9.290;2022-09-23T23:56:53;12.20;5.40
429;DHT22;201;48.758;9.290;2022-09-23T23:59:19;12.20;5.50
